Time;durP1;ratioP1;P1;durP2;ratioP2;P2;SDS_P1;SDS_P2;PMS_P1;PMS_P2;Temp;Humidity;BMP_temperature;BMP_pressure;BME280_temperature;BME280_humidity;BME280_pressure;Samples;Min_cycle;Max_cycle;Signal;HPM_P1;HPM_P2
2022/05/29 00:04:46;;;;;;;8.90;2.77;;;;;;;10.19;100.00;100227.72;5211719;56;1141061;-70
2022/05/29 00:09:52;;;;;;;9.63;1.70;;;;;;;10.20;100.00;100220.63;5211549;56;1139099;-71
2022/05/29 00:14:58;;;;;;;11.23;1.90;;;;;;;10.18;100.00;100226.48;5211832;56;1136997;-70
2022/05/29 00:20:07;;;;;;;7.03;2.20;;;;;;;10.17;100.00;100224.80;5211615;56;1139329;-73
2022/05/29 00:25:13;;;;;;;5.30;1.63;;;;;;;10.18;100.00;100224.72;5211510;56;1141190;-71
2022/05/29 00:30:20;;;;;;;6.90;1.73;;;;;;;10.18;100.00;100219.87;5211693;56;1141103;-72
2022/05/29 00:35:26;;;;;;;7.73;2.03;;;;;;;10.17;100.00;100211.59;5156469;56;1141122;-70
2022/05/29 00:41:01;;;;;;;11.90;2.27;;;;;;;10.16;100.00;100209.91;5165615;56;1140935;-71
2022/05/29 00:46:09;;;;;;;9.27;2.10;;;;;;;10.14;100.00;100204.75;5209479;56;1143230;-73
2022/05/29 00:51:14;;;;;;;5.97;1.63;;;;;;;10.13;100.00;100201.74;5209059;56;1141369;-73
2022/05/29 00:56:20;;;;;;;8.47;1.87;;;;;;;10.12;100.00;100201.38;5208671;56;1141104;-69
2022/05/29 01:01:27;;;;;;;13.53;2.10;;;;;;;10.11;100.00;100207.63;5209539;56;1141148;-73
2022/05/29 01:06:35;;;;;;;15.93;2.00;;;;;;;10.11;100.00;100206.79;5209070;56;1143231;-73
2022/05/29 01:12:10;;;;;;;10.67;1.90;;;;;;;10.11;100.00;100206.31;5186891;56;1143225;-69
2022/05/29 01:17:53;;;;;;;8.27;1.50;;;;;;;10.12;100.00;100213.76;5138472;56;1143194;-68
2022/05/29 01:23:15;;;;;;;11.20;2.23;;;;;;;10.09;100.00;100199.47;5123069;57;1141141;-70
2022/05/29 01:28:43;;;;;;;7.73;2.50;;;;;;;10.08;100.00;100205.74;5117030;57;1143448;-70
2022/05/29 01:34:01;;;;;;;10.83;2.17;;;;;;;10.06;100.00;100206.34;5110493;57;1139131;-71
2022/05/29 01:39:14;;;;;;;7.73;1.60;;;;;;;10.02;100.00;100199.13;5091407;57;1141137;-72
2022/05/29 01:44:27;;;;;;;6.10;2.13;;;;;;;10.02;100.00;100199.13;5155563;56;1139244;-71
2022/05/29 01:49:37;;;;;;;9.03;2.67;;;;;;;9.98;100.00;100195.53;5155420;56;1139050;-72
2022/05/29 01:54:48;;;;;;;7.67;1.83;;;;;;;9.96;100.00;100190.37;5155683;56;1137120;-71
2022/05/29 02:00:10;;;;;;;8.10;1.73;;;;;;;9.95;100.00;100195.77;5137379;56;1136965;-69
2022/05/29 02:05:22;;;;;;;10.10;2.10;;;;;;;9.92;100.00;100196.05;5144563;57;1135314;-70
2022/05/29 02:10:38;;;;;;;11.47;2.30;;;;;;;9.88;100.00;100192.80;5151160;57;1136990;-72
2022/05/29 02:15:48;;;;;;;10.37;3.07;;;;;;;9.81;100.00;100191.11;5151547;57;1141072;-70
2022/05/29 02:20:58;;;;;;;6.87;1.53;;;;;;;9.79;100.00;100193.52;5151989;57;1141209;-72
2022/05/29 02:26:06;;;;;;;6.40;2.27;;;;;;;9.71;100.00;100196.77;5155302;57;1139092;-72
2022/05/29 02:31:25;;;;;;;10.27;2.17;;;;;;;9.70;100.00;100208.30;5155637;57;1139241;-70
2022/05/29 02:37:15;;;;;;;9.63;1.60;;;;;;;9.67;100.00;100209.02;5050571;57;1141227;-72
2022/05/29 02:42:44;;;;;;;4.87;1.23;;;;;;;9.67;100.00;100207.21;4994411;58;1139071;-69
2022/05/29 02:48:06;;;;;;;8.47;1.77;;;;;;;9.68;100.00;100205.41;4994418;58;1139057;-70
2022/05/29 02:53:15;;;;;;;9.73;1.70;;;;;;;9.63;100.00;100198.33;4992726;58;1139366;-71
2022/05/29 02:58:25;;;;;;;7.90;1.77;;;;;;;9.57;100.00;100196.19;4994596;58;1139295;-68
2022/05/29 03:03:54;;;;;;;8.47;1.70;;;;;;;9.56;100.00;100208.55;4994241;58;1139117;-71
2022/05/29 03:09:05;;;;;;;8.53;1.33;;;;;;;9.52;100.00;100206.62;4994286;58;1139136;-72
2022/05/29 03:14:24;;;;;;;9.53;2.40;;;;;;;9.49;100.00;100209.97;4992477;58;1137077;-72
2022/05/29 03:19:58;;;;;;;9.60;2.60;;;;;;;9.48;100.00;100217.05;5058895;57;1137562;-73
2022/05/29 03:25:21;;;;;;;10.57;1.90;;;;;;;9.49;100.00;100218.73;5009183;58;1137175;-73
2022/05/29 03:30:37;;;;;;;5.47;1.40;;;;;;;9.51;100.00;100218.13;4998271;58;1139118;-72
2022/05/29 03:35:56;;;;;;;8.50;2.37;;;;;;;9.56;100.00;100222.22;5022203;57;1135078;-71
2022/05/29 03:41:07;;;;;;;8.88;1.55;;;;;;;9.58;100.00;100221.15;5043392;58;1139083;-72
2022/05/29 03:46:12;;;;;;;7.73;1.97;;;;;;;9.58;100.00;100226.43;4994166;58;1139324;-72
2022/05/29 03:51:18;;;;;;;5.43;1.53;;;;;;;9.56;100.00;100229.66;4994292;58;1139371;-70
2022/05/29 03:56:24;;;;;;;8.37;1.60;;;;;;;9.56;100.00;100237.59;4994223;58;1139070;-70
2022/05/29 04:01:30;;;;;;;11.40;1.90;;;;;;;9.59;100.00;100227.27;4994227;58;1139187;-72
2022/05/29 04:06:39;;;;;;;6.07;1.90;;;;;;;9.59;100.00;100224.16;4987344;58;1141241;-68
2022/05/29 04:12:05;;;;;;;9.77;1.83;;;;;;;9.64;100.00;100229.89;4994821;58;1139272;-69
2022/05/29 04:17:14;;;;;;;8.97;2.40;;;;;;;9.68;100.00;100237.94;4998322;58;1139155;-69
2022/05/29 04:22:22;;;;;;;8.83;2.60;;;;;;;9.75;100.00;100242.27;4960242;58;1139034;-70
2022/05/29 04:27:28;;;;;;;12.97;2.17;;;;;;;9.81;100.00;100248.38;4952547;58;1139485;-71
2022/05/29 04:37:56;;;;;;;7.20;2.17;;;;;;;9.81;100.00;100254.98;5016918;57;1141115;-72
2022/05/29 04:43:02;;;;;;;12.60;1.57;;;;;;;9.84;100.00;100253.42;5048910;58;1139051;-69
2022/05/29 04:48:09;;;;;;;5.07;1.37;;;;;;;9.85;100.00;100251.14;5049775;58;1141114;-73
2022/05/29 04:53:17;;;;;;;5.13;1.80;;;;;;;9.90;100.00;100252.95;5050330;58;1139315;-72
2022/05/29 04:58:26;;;;;;;12.30;1.97;;;;;;;10.03;100.00;100248.38;4919171;59;1139370;-70
2022/05/29 05:03:33;;;;;;;5.93;1.70;;;;;;;10.13;100.00;100240.06;4838383;60;1143215;-71
2022/05/29 05:08:38;;;;;;;10.37;1.90;;;;;;;10.21;100.00;100236.37;4880851;59;1141150;-71
2022/05/29 05:13:43;;;;;;;10.17;1.63;;;;;;;10.26;100.00;100233.81;4902870;59;1143398;-71
2022/05/29 05:18:49;;;;;;;2.80;1.43;;;;;;;10.32;100.00;100246.06;4961118;59;1143304;-70
2022/05/29 05:23:55;;;;;;;5.03;1.50;;;;;;;10.36;100.00;100246.66;4960838;59;1141118;-71
2022/05/29 05:29:02;;;;;;;4.23;1.40;;;;;;;10.48;100.00;100248.30;5026774;58;1141216;-72
2022/05/29 05:34:08;;;;;;;7.20;2.53;;;;;;;10.56;100.00;100249.34;4956631;59;1141494;-70
2022/05/29 05:39:13;;;;;;;7.47;2.22;;;;;;;10.68;100.00;100244.88;4983033;58;1141105;-73
2022/05/29 05:44:20;;;;;;;11.00;2.53;;;;;;;10.77;100.00;100244.11;4965232;59;1141145;-72
2022/05/29 05:49:27;;;;;;;8.17;1.73;;;;;;;10.86;100.00;100247.30;4976037;58;1143275;-69
2022/05/29 05:54:34;;;;;;;5.33;2.03;;;;;;;10.93;100.00;100247.64;5035393;57;1141531;-70
2022/05/29 05:59:41;;;;;;;6.63;1.80;;;;;;;10.96;100.00;100253.17;5065179;57;1138959;-71
2022/05/29 06:04:47;;;;;;;5.97;1.40;;;;;;;10.99;100.00;100253.77;5075133;57;1139644;-71
2022/05/29 06:09:53;;;;;;;6.73;1.90;;;;;;;11.05;100.00;100261.66;5046219;58;1139024;-71
2022/05/29 06:15:00;;;;;;;5.60;1.93;;;;;;;11.11;100.00;100264.64;5093321;57;1139092;-69
2022/05/29 06:20:07;;;;;;;9.43;2.50;;;;;;;11.22;100.00;100261.92;5038623;58;1139044;-72
2022/05/29 06:25:14;;;;;;;10.43;2.50;;;;;;;11.41;100.00;100257.23;5156142;56;1139200;-69
2022/05/29 06:30:20;;;;;;;13.47;1.90;;;;;;;11.37;99.37;100261.11;5027070;56;1141218;-74
2022/05/29 06:35:26;;;;;;;3.30;1.40;;;;;;;11.36;99.96;100260.75;5026923;58;1139335;-69
2022/05/29 06:40:31;;;;;;;4.70;1.70;;;;;;;11.39;99.70;100264.95;5094553;57;1137350;-70
2022/05/29 06:45:37;;;;;;;5.23;1.63;;;;;;;11.55;99.66;100265.33;5155899;57;1137001;-70
2022/05/29 06:50:43;;;;;;;4.70;1.80;;;;;;;11.70;98.87;100267.98;5155440;56;1136969;-71
2022/05/29 06:55:56;;;;;;;7.23;1.90;;;;;;;11.74;98.68;100270.73;5150527;56;1136943;-74
2022/05/29 07:12:08;;;;;;;5.93;2.40;;;;;;;12.08;97.33;100268.63;5151167;56;1139527;-71
2022/05/29 07:17:13;;;;;;;6.93;2.10;;;;;;;12.36;95.45;100261.75;5154065;56;1139017;-72
2022/05/29 07:22:19;;;;;;;9.20;2.23;;;;;;;12.45;94.31;100268.04;5154057;56;1139062;-73
2022/05/29 07:27:25;;;;;;;10.63;2.07;;;;;;;12.54;94.28;100272.02;5154703;56;1139026;-70
2022/05/29 07:32:30;;;;;;;7.60;2.13;;;;;;;12.68;94.02;100272.94;5154519;56;1141283;-69
2022/05/29 07:37:37;;;;;;;4.90;1.60;;;;;;;12.84;93.90;100271.55;5154813;56;1138977;-71
2022/05/29 10:29:21;;;;;;;3.40;1.10;;;;;;;14.16;74.66;100314.95;5238105;54;47436;-69
2022/05/29 10:34:30;;;;;;;3.10;1.45;;;;;;;14.20;74.63;100306.20;4656054;55;1134900;-69
2022/05/29 10:39:36;;;;;;;4.37;1.63;;;;;;;14.20;74.21;100308.36;4588844;55;1215761;-72
2022/05/29 10:44:48;;;;;;;6.25;1.50;;;;;;;14.25;74.66;100311.39;4600850;56;1138996;-70
2022/05/29 10:50:14;;;;;;;1.77;1.05;;;;;;;14.30;75.45;100303.82;4582651;57;1139126;-70
2022/05/29 10:55:40;;;;;;;4.35;1.20;;;;;;;14.41;74.88;100310.79;4600572;57;1139024;-73
2022/05/29 11:07:08;;;;;;;8.68;2.17;;;;;;;14.62;74.72;100299.89;4582785;57;1139086;-70
2022/05/29 11:12:47;;;;;;;3.92;1.57;;;;;;;14.34;75.17;100297.72;4586638;56;1138988;-74
2022/05/29 11:18:13;;;;;;;8.50;1.47;;;;;;;14.11;75.49;100303.91;4611753;56;1252032;-74
2022/05/29 11:23:56;;;;;;;1.78;1.15;;;;;;;13.92;75.64;100299.98;4529991;56;1138961;-70
2022/05/29 11:29:31;;;;;;;4.97;1.30;;;;;;;13.81;76.83;100298.36;4964465;58;1139067;-71
2022/05/29 11:34:59;;;;;;;4.97;2.03;;;;;;;13.68;77.79;100304.00;5019878;58;1139134;-74
2022/05/29 11:40:21;;;;;;;5.70;1.57;;;;;;;13.69;77.98;100296.38;5016281;58;1139178;-73
2022/05/29 11:51:18;;;;;;;3.30;2.87;;;;;;;13.68;77.84;100285.39;4973759;57;1137079;-71
2022/05/29 11:56:29;;;;;;;3.87;1.70;;;;;;;13.69;78.32;100290.22;5063141;57;1136963;-72
2022/05/29 12:01:45;;;;;;;6.83;1.93;;;;;;;13.71;78.83;100288.26;5052859;57;1137097;-74
2022/05/29 12:07:08;;;;;;;11.37;7.77;;;;;;;13.82;78.87;100286.74;4999909;58;1137000;-73
2022/05/29 12:12:35;;;;;;;9.80;3.33;;;;;;;13.80;78.36;100286.05;5076241;58;1139128;-75
2022/05/29 12:17:49;;;;;;;4.97;1.53;;;;;;;13.85;78.53;100287.79;5112739;57;1139045;-73
2022/05/29 12:22:57;;;;;;;;;;;;;;;13.88;77.48;100286.66;5162534;57;1139043;-72
2022/05/29 12:28:06;;;;;;;7.53;2.73;;;;;;;13.92;77.04;100290.20;5119317;57;976416;-74
2022/05/29 12:33:22;;;;;;;7.07;1.97;;;;;;;13.93;76.52;100295.02;5080811;57;1136961;-74
2022/05/29 12:38:42;;;;;;;2.67;1.40;;;;;;;13.94;75.95;100297.53;5238750;56;1138942;-72
2022/05/29 12:44:08;;;;;;;9.20;2.13;;;;;;;13.95;74.67;100291.73;5250689;56;1139314;-72
2022/05/29 12:49:48;;;;;;;4.63;1.90;;;;;;;13.93;75.56;100293.20;5250483;56;1139046;-71
2022/05/29 12:55:15;;;;;;;4.63;2.23;;;;;;;13.99;76.14;100303.75;5250334;56;1139061;-73
2022/05/29 13:01:01;;;;;;;6.30;1.27;;;;;;;13.98;74.73;100304.24;5140156;56;1139019;-69
2022/05/29 13:06:46;;;;;;;4.03;1.55;;;;;;;14.04;76.15;100305.49;5154106;56;1136952;-71
2022/05/29 13:11:57;;;;;;;3.73;1.60;;;;;;;14.15;74.94;100297.81;5153340;56;1136900;-76
2022/05/29 13:17:08;;;;;;;3.10;1.53;;;;;;;14.17;74.26;100286.53;5152273;56;1136982;-69
2022/05/29 13:22:14;;;;;;;3.83;1.23;;;;;;;14.22;73.46;100290.89;5151663;56;1136906;-69
2022/05/29 13:27:24;;;;;;;2.97;1.10;;;;;;;14.24;74.39;100290.27;5175599;56;1136908;-74
2022/05/29 13:32:33;;;;;;;1.97;1.30;;;;;;;14.31;73.21;100281.55;5148666;56;1137233;-73
2022/05/29 13:37:49;;;;;;;4.07;1.27;;;;;;;14.40;72.16;100282.50;5203161;56;1134966;-71
2022/05/29 13:43:15;;;;;;;2.87;1.13;;;;;;;14.47;73.43;100286.75;5224327;56;1139282;-72
2022/05/29 13:48:34;;;;;;;4.13;1.03;;;;;;;14.52;72.89;100277.80;5223898;56;1139130;-72
2022/05/29 13:53:50;;;;;;;3.63;1.30;;;;;;;14.60;72.41;100282.73;5222963;56;1139287;-72
2022/05/29 14:04:45;;;;;;;4.57;1.30;;;;;;;14.84;72.73;100278.13;5187237;56;1139477;-73
2022/05/29 14:10:25;;;;;;;4.50;1.03;;;;;;;14.88;70.47;100286.66;5136654;57;1139300;-70
2022/05/29 14:15:39;;;;;;;1.30;0.70;;;;;;;14.94;70.44;100290.89;5137754;57;1139051;-74
2022/05/29 14:21:10;;;;;;;5.75;2.10;;;;;;;14.95;70.82;100284.58;5137609;57;1139037;-70
2022/05/29 14:26:56;;;;;;;3.47;2.00;;;;;;;14.90;68.31;100294.00;5177234;56;1139113;-73
2022/05/29 14:31:56;;;;;;;3.20;1.27;;;;;;;14.82;69.74;100290.75;5060408;57;1137034;-74
2022/05/29 14:37:11;;;;;;;2.40;1.17;;;;;;;14.84;68.74;100287.95;5057243;58;1137059;-74
2022/05/29 14:42:24;;;;;;;4.10;0.97;;;;;;;14.83;69.34;100276.95;5211701;56;1137278;-75
2022/05/29 14:47:49;;;;;;;3.87;1.17;;;;;;;14.90;70.01;100276.20;5230621;56;1136993;-73
2022/05/29 14:53:17;;;;;;;2.60;1.00;;;;;;;14.96;70.08;100268.95;5235107;56;1134972;-72
2022/05/29 14:58:44;;;;;;;4.47;2.87;;;;;;;15.01;70.30;100259.98;5223074;56;1139060;-73
2022/05/29 15:03:51;;;;;;;3.70;1.20;;;;;;;15.09;70.45;100257.89;5199887;56;1138978;-70
2022/05/29 15:14:24;;;;;;;1.63;1.00;;;;;;;15.30;70.26;100236.22;5149031;57;1139050;-70
2022/05/29 15:25:10;;;;;;;1.20;1.00;;;;;;;15.51;69.26;100223.37;5235503;56;1139150;-71
2022/05/29 15:30:22;;;;;;;2.67;0.80;;;;;;;15.68;69.01;100199.00;5155508;56;1139217;-70
2022/05/29 15:35:38;;;;;;;2.13;1.20;;;;;;;15.85;68.48;100217.25;5150897;56;1139276;-70
2022/05/29 15:41:19;;;;;;;2.70;1.10;;;;;;;16.07;67.67;100220.66;5167546;56;1139319;-74
2022/05/29 15:46:41;;;;;;;3.23;0.90;;;;;;;16.12;66.61;100222.34;5178153;56;1139076;-71
2022/05/29 15:52:23;;;;;;;3.53;1.10;;;;;;;16.21;67.12;100216.52;5153881;56;1137096;-70
2022/05/29 15:57:48;;;;;;;2.30;0.70;;;;;;;16.43;66.20;100202.08;5155407;56;1137071;-68
2022/05/29 16:03:00;;;;;;;6.23;2.27;;;;;;;16.61;64.03;100199.77;5164487;56;1136959;-70
2022/05/29 16:08:23;;;;;;;;;;;;;;;16.63;63.63;100203.14;5169056;56;1136949;-72
2022/05/29 16:13:50;;;;;;;1.83;0.73;;;;;;;16.57;63.55;100201.92;5160762;56;976327;-71
2022/05/29 16:19:30;;;;;;;2.47;1.00;;;;;;;16.65;64.31;100202.48;5170034;56;1136978;-72
2022/05/29 16:24:53;;;;;;;2.13;1.37;;;;;;;16.77;63.68;100205.16;5181394;56;1139018;-74
2022/05/29 16:30:12;;;;;;;2.50;1.47;;;;;;;16.68;62.17;100209.64;5176782;56;1139391;-71
2022/05/29 16:36:01;;;;;;;3.17;1.27;;;;;;;16.47;62.53;100206.10;5176010;56;1138900;-67
2022/05/29 16:52:28;;;;;;;2.60;0.90;;;;;;;16.04;63.99;100209.80;5226660;56;1136954;-70
2022/05/29 16:57:36;;;;;;;;;;;;;;;15.91;64.41;100208.59;5133821;57;1137254;-74
2022/05/29 17:02:46;;;;;;;1.27;0.67;;;;;;;15.81;64.13;100214.06;5160917;57;974556;-72
2022/05/29 17:08:03;;;;;;;4.53;1.15;;;;;;;15.74;64.52;100212.52;5160748;57;1135134;-72
2022/05/29 17:13:09;;;;;;;3.33;0.70;;;;;;;15.69;64.44;100211.34;5250295;56;1137242;-71
2022/05/29 17:18:16;;;;;;;6.13;3.90;;;;;;;15.68;65.24;100211.00;5250396;56;1137070;-73
2022/05/29 17:23:46;;;;;;;6.53;2.43;;;;;;;15.71;65.27;100205.36;5250374;56;1137054;-71
2022/05/29 17:29:14;;;;;;;17.07;10.85;;;;;;;15.76;65.59;100205.69;5194279;56;1139348;-75
2022/05/29 17:34:29;;;;;;;8.80;4.53;;;;;;;15.78;65.26;100206.37;5163747;56;1143219;-70
2022/05/29 17:39:51;;;;;;;12.97;6.77;;;;;;;15.80;65.66;100204.39;5214514;56;1138854;-74
2022/05/29 17:45:00;;;;;;;10.27;4.50;;;;;;;15.81;66.07;100204.23;5051419;58;1141232;-71
2022/05/29 17:50:42;;;;;;;11.23;4.67;;;;;;;15.79;66.15;100200.88;5235130;56;1141349;-70
2022/05/29 17:55:48;;;;;;;10.30;6.27;;;;;;;15.77;66.57;100206.03;5189360;56;1141189;-72
2022/05/29 18:00:54;;;;;;;12.23;5.80;;;;;;;15.75;66.71;100212.86;5235400;56;1141107;-72
2022/05/29 18:06:01;;;;;;;43.80;16.70;;;;;;;15.73;67.11;100216.70;5234963;56;1141490;-74
2022/05/29 18:11:10;;;;;;;19.13;8.80;;;;;;;15.67;66.92;100221.33;5234984;56;1143486;-70
2022/05/29 18:16:16;;;;;;;8.98;3.75;;;;;;;15.61;67.54;100220.12;5229351;56;1141257;-74
2022/05/29 18:21:22;;;;;;;4.83;2.43;;;;;;;15.59;67.69;100215.94;5215214;56;1139024;-72
2022/05/29 18:26:34;;;;;;;4.57;2.03;;;;;;;15.58;67.78;100215.62;5201416;56;1139267;-76
2022/05/29 18:31:40;;;;;;;11.60;4.77;;;;;;;15.57;67.78;100217.95;5173806;56;1139177;-74
2022/05/29 18:36:46;;;;;;;26.83;13.60;;;;;;;15.54;68.14;100213.73;5177799;56;1141151;-73
2022/05/29 18:41:52;;;;;;;14.43;7.40;;;;;;;15.52;68.18;100219.72;5195655;56;1143601;-72
2022/05/29 18:47:00;;;;;;;4.73;3.60;;;;;;;15.52;69.09;100220.21;5168650;56;1141093;-71
2022/05/29 18:52:06;;;;;;;4.83;3.37;;;;;;;15.43;69.75;100217.98;5186285;56;1139054;-72
2022/05/29 18:57:17;;;;;;;9.47;6.80;;;;;;;15.31;70.57;100226.73;5150749;57;1139291;-69
2022/05/29 19:02:22;;;;;;;7.60;4.97;;;;;;;15.18;71.32;100231.65;5155459;56;1137125;-74
2022/05/29 19:07:28;;;;;;;3.07;2.47;;;;;;;15.09;72.02;100229.92;5149405;56;1137247;-76
2022/05/29 19:12:35;;;;;;;5.87;3.23;;;;;;;15.02;72.16;100229.70;5131471;57;1137120;-74
2022/05/29 19:23:04;;;;;;;103.67;52.57;;;;;;;14.95;72.91;100235.31;4896627;59;1137123;-73
2022/05/29 19:28:12;;;;;;;30.23;16.20;;;;;;;14.85;73.12;100229.71;4947056;59;1143208;-73
2022/05/29 19:33:18;;;;;;;8.53;4.87;;;;;;;14.73;73.06;100234.44;4917323;59;1141555;-69
2022/05/29 19:38:25;;;;;;;6.40;4.07;;;;;;;14.64;73.86;100236.70;4951348;58;1137146;-70
2022/05/29 19:43:31;;;;;;;8.23;3.27;;;;;;;14.58;74.70;100238.13;4931185;58;1137265;-71
2022/05/29 19:48:37;;;;;;;10.97;3.30;;;;;;;14.49;75.54;100224.91;4973044;59;1137387;-72
2022/05/29 19:53:44;;;;;;;15.17;5.60;;;;;;;14.43;76.14;100226.34;4972796;59;1139373;-71
2022/05/29 19:58:50;;;;;;;17.37;6.42;;;;;;;14.39;76.48;100230.24;5141846;56;1139102;-69
2022/05/29 20:03:58;;;;;;;8.63;5.60;;;;;;;14.38;77.05;100226.74;5142973;56;1139163;-69
2022/05/29 20:09:07;;;;;;;10.37;5.10;;;;;;;14.40;77.55;100218.64;5150511;56;1135024;-72
2022/05/29 20:14:15;;;;;;;5.50;3.73;;;;;;;14.39;77.94;100220.93;5155279;56;1141079;-72
2022/05/29 20:19:21;;;;;;;7.20;4.00;;;;;;;14.36;78.29;100216.73;5165732;56;1139012;-73
2022/05/29 20:24:27;;;;;;;4.27;3.23;;;;;;;14.36;78.70;100218.07;5157240;56;1139459;-71
2022/05/29 20:29:32;;;;;;;3.87;2.97;;;;;;;14.34;78.89;100215.24;5039115;58;1139077;-72
2022/05/29 20:34:38;;;;;;;3.83;2.20;;;;;;;14.22;79.76;100216.42;5087747;57;1139045;-72
2022/05/29 20:39:43;;;;;;;3.17;2.40;;;;;;;14.07;79.83;100218.75;5161826;56;1139049;-70
2022/05/29 20:44:50;;;;;;;4.77;2.60;;;;;;;13.98;80.34;100223.15;5239612;55;1138913;-71
2022/05/29 20:49:56;;;;;;;7.50;4.23;;;;;;;13.97;81.11;100225.95;5233822;55;1139206;-73
2022/05/29 20:55:01;;;;;;;7.43;4.07;;;;;;;13.95;81.66;100230.08;5241842;55;1138963;-70
2022/05/29 21:00:11;;;;;;;6.00;4.07;;;;;;;13.95;82.05;100228.75;5234200;55;1139064;-73
2022/05/29 21:05:17;;;;;;;6.97;4.00;;;;;;;13.96;82.49;100229.59;5211332;55;1138999;-73
2022/05/29 21:10:23;;;;;;;6.03;4.10;;;;;;;13.92;82.56;100229.05;5195280;55;1138706;-71
2022/05/29 21:15:28;;;;;;;9.87;5.10;;;;;;;13.85;82.67;100235.95;5231122;55;1139178;-72
2022/05/29 21:20:37;;;;;;;9.83;7.00;;;;;;;13.83;82.77;100234.42;5233840;55;1139238;-70
2022/05/29 21:25:44;;;;;;;5.20;3.40;;;;;;;13.86;83.26;100231.47;5218927;56;1139116;-73
2022/05/29 21:30:57;;;;;;;3.87;2.50;;;;;;;13.87;83.39;100228.67;5218627;55;1139060;-71
2022/05/29 21:36:03;;;;;;;6.33;2.70;;;;;;;13.87;83.53;100235.80;5226666;55;1139054;-73
2022/05/29 21:41:10;;;;;;;4.40;2.23;;;;;;;13.80;83.56;100223.58;5237627;55;1139107;-69
2022/05/29 21:46:17;;;;;;;7.30;2.93;;;;;;;13.77;83.60;100224.36;5268399;56;1139058;-69
2022/05/29 21:51:24;;;;;;;6.40;2.73;;;;;;;13.73;83.63;100227.83;5221921;55;1139101;-69
2022/05/29 21:56:30;;;;;;;9.90;3.23;;;;;;;13.66;83.68;100220.08;5166336;56;1139027;-71
2022/05/29 22:01:36;;;;;;;5.20;3.07;;;;;;;13.64;83.51;100210.08;5166778;56;1139002;-70
2022/05/29 22:06:45;;;;;;;6.17;3.20;;;;;;;13.64;83.54;100217.56;5168660;57;1139078;-70
2022/05/29 22:11:51;;;;;;;6.67;3.30;;;;;;;13.60;83.63;100221.48;5095398;57;1138998;-73
2022/05/29 22:16:56;;;;;;;4.70;3.60;;;;;;;13.60;84.18;100213.52;5101206;57;1139065;-73
2022/05/29 22:22:03;;;;;;;14.60;4.40;;;;;;;13.61;84.26;100210.37;5104383;57;1139156;-73
2022/05/29 22:27:10;;;;;;;8.87;4.30;;;;;;;13.56;84.22;100201.52;5123740;57;1141357;-71
2022/05/29 22:32:26;;;;;;;6.53;4.43;;;;;;;13.45;84.28;100196.37;5205354;56;1138984;-73
2022/05/29 22:37:32;;;;;;;14.03;4.57;;;;;;;13.38;84.38;100195.30;5199746;56;1138998;-72
2022/05/29 22:42:39;;;;;;;12.93;5.30;;;;;;;13.34;84.37;100196.06;5131306;57;1141127;-69
2022/05/29 22:48:18;;;;;;;17.30;5.53;;;;;;;13.26;83.75;100182.69;5196866;56;1141275;-73
2022/05/29 22:53:37;;;;;;;9.70;5.53;;;;;;;13.24;84.01;100180.66;5115972;56;1139076;-72
2022/05/29 22:58:43;;;;;;;13.77;5.40;;;;;;;13.27;84.08;100172.41;5094793;58;1136920;-69
2022/05/29 23:04:25;;;;;;;12.73;5.20;;;;;;;13.22;83.46;100168.02;5094875;58;1139453;-68
2022/05/29 23:09:31;;;;;;;11.73;6.05;;;;;;;13.13;83.18;100172.84;5094712;58;1139431;-69
2022/05/29 23:14:37;;;;;;;14.00;5.83;;;;;;;13.03;83.28;100177.31;5028898;58;1137090;-72
2022/05/29 23:19:43;;;;;;;8.63;4.30;;;;;;;13.00;83.83;100174.94;5097141;57;1137154;-71
2022/05/29 23:24:58;;;;;;;6.03;4.13;;;;;;;13.06;83.64;100174.87;5199275;57;21167;-72
2022/05/29 23:30:08;;;;;;;12.27;5.83;;;;;;;13.03;83.28;100175.50;5097020;57;1134694;-71
2022/05/29 23:35:32;;;;;;;8.10;4.87;;;;;;;13.06;83.27;100175.70;5205728;56;1141414;-72
2022/05/29 23:40:41;;;;;;;7.87;5.37;;;;;;;13.00;83.36;100174.45;5209527;56;1139033;-71
2022/05/29 23:46:05;;;;;;;12.27;6.03;;;;;;;12.98;83.71;100163.66;5284487;55;1138939;-73
2022/05/29 23:51:11;;;;;;;14.10;5.47;;;;;;;12.93;83.85;100168.55;5307346;55;1141039;-73
2022/05/29 23:56:19;;;;;;;10.53;5.07;;;;;;;12.84;83.71;100161.41;5307142;55;1141075;-72
